sensor_id;sensor_type;location;lat;lon;timestamp;P1;durP1;ratioP1;P2;durP2;ratioP2
67528;SDS011;54366;51.980;5.856;2023-06-19T00:00:55;6.13;;;5.63;;
67528;SDS011;54366;51.980;5.856;2023-06-19T00:03:34;6.03;;;5.53;;
67528;SDS011;54366;51.980;5.856;2023-06-19T00:06:07;5.40;;;5.00;;
67528;SDS011;54366;51.980;5.856;2023-06-19T00:08:40;5.95;;;5.47;;
67528;SDS011;54366;51.980;5.856;2023-06-19T00:11:14;6.22;;;5.72;;
67528;SDS011;54366;51.980;5.856;2023-06-19T00:13:41;5.40;;;4.90;;
67528;SDS011;54366;51.980;5.856;2023-06-19T00:16:13;5.05;;;4.63;;
67528;SDS011;54366;51.980;5.856;2023-06-19T00:18:46;5.13;;;4.77;;
67528;SDS011;54366;51.980;5.856;2023-06-19T00:21:19;5.30;;;4.90;;
67528;SDS011;54366;51.980;5.856;2023-06-19T00:23:46;4.78;;;4.47;;
67528;SDS011;54366;51.980;5.856;2023-06-19T00:26:18;6.03;;;5.50;;
67528;SDS011;54366;51.980;5.856;2023-06-19T00:28:54;5.45;;;4.97;;
67528;SDS011;54366;51.980;5.856;2023-06-19T00:31:28;4.97;;;4.57;;
67528;SDS011;54366;51.980;5.856;2023-06-19T00:33:55;4.88;;;4.43;;
67528;SDS011;54366;51.980;5.856;2023-06-19T00:36:28;5.13;;;4.73;;
67528;SDS011;54366;51.980;5.856;2023-06-19T00:39:00;4.93;;;4.53;;
67528;SDS011;54366;51.980;5.856;2023-06-19T00:41:28;4.50;;;4.20;;
67528;SDS011;54366;51.980;5.856;2023-06-19T00:44:03;5.05;;;4.50;;
67528;SDS011;54366;51.980;5.856;2023-06-19T00:46:36;5.53;;;5.03;;
67528;SDS011;54366;51.980;5.856;2023-06-19T00:49:11;5.53;;;5.05;;
67528;SDS011;54366;51.980;5.856;2023-06-19T00:51:40;5.15;;;4.65;;
67528;SDS011;54366;51.980;5.856;2023-06-19T00:54:14;5.03;;;4.63;;
67528;SDS011;54366;51.980;5.856;2023-06-19T00:56:40;5.22;;;4.80;;
67528;SDS011;54366;51.980;5.856;2023-06-19T00:59:19;5.32;;;4.93;;
67528;SDS011;54366;51.980;5.856;2023-06-19T01:01:59;5.10;;;4.70;;
67528;SDS011;54366;51.980;5.856;2023-06-19T01:04:32;4.93;;;4.57;;
67528;SDS011;54366;51.980;5.856;2023-06-19T01:07:08;4.83;;;4.33;;
67528;SDS011;54366;51.980;5.856;2023-06-19T01:09:48;4.90;;;4.50;;
67528;SDS011;54366;51.980;5.856;2023-06-19T01:12:29;4.80;;;4.40;;
67528;SDS011;54366;51.980;5.856;2023-06-19T01:15:06;5.18;;;4.68;;
67528;SDS011;54366;51.980;5.856;2023-06-19T01:17:35;4.50;;;4.10;;
67528;SDS011;54366;51.980;5.856;2023-06-19T01:20:08;4.53;;;4.22;;
67528;SDS011;54366;51.980;5.856;2023-06-19T01:22:37;4.90;;;4.47;;
67528;SDS011;54366;51.980;5.856;2023-06-19T01:25:10;4.57;;;4.18;;
67528;SDS011;54366;51.980;5.856;2023-06-19T01:27:45;5.20;;;4.70;;
67528;SDS011;54366;51.980;5.856;2023-06-19T01:30:12;5.18;;;4.78;;
67528;SDS011;54366;51.980;5.856;2023-06-19T01:32:56;5.47;;;4.85;;
67528;SDS011;54366;51.980;5.856;2023-06-19T01:35:36;4.65;;;4.25;;
67528;SDS011;54366;51.980;5.856;2023-06-19T01:38:12;4.68;;;4.20;;
67528;SDS011;54366;51.980;5.856;2023-06-19T01:43:20;4.50;;;4.20;;
67528;SDS011;54366;51.980;5.856;2023-06-19T01:45:54;4.78;;;4.38;;
67528;SDS011;54366;51.980;5.856;2023-06-19T01:48:27;4.90;;;4.40;;
67528;SDS011;54366;51.980;5.856;2023-06-19T01:51:01;4.25;;;3.95;;
67528;SDS011;54366;51.980;5.856;2023-06-19T01:53:38;5.00;;;4.60;;
67528;SDS011;54366;51.980;5.856;2023-06-19T01:56:04;4.70;;;4.30;;
67528;SDS011;54366;51.980;5.856;2023-06-19T01:58:37;4.13;;;3.73;;
67528;SDS011;54366;51.980;5.856;2023-06-19T02:01:04;4.57;;;4.18;;
67528;SDS011;54366;51.980;5.856;2023-06-19T02:03:37;4.30;;;3.90;;
67528;SDS011;54366;51.980;5.856;2023-06-19T02:06:03;3.67;;;3.38;;
67528;SDS011;54366;51.980;5.856;2023-06-19T02:08:36;6.03;;;3.80;;
67528;SDS011;54366;51.980;5.856;2023-06-19T02:11:12;4.10;;;3.80;;
67528;SDS011;54366;51.980;5.856;2023-06-19T02:13:40;3.85;;;3.55;;
67528;SDS011;54366;51.980;5.856;2023-06-19T02:16:13;4.22;;;3.92;;
67528;SDS011;54366;51.980;5.856;2023-06-19T02:18:40;4.10;;;3.00;;
67528;SDS011;54366;51.980;5.856;2023-06-19T02:21:13;5.80;;;3.95;;
67528;SDS011;54366;51.980;5.856;2023-06-19T02:23:40;4.43;;;4.03;;
67528;SDS011;54366;51.980;5.856;2023-06-19T02:26:12;4.60;;;4.20;;
67528;SDS011;54366;51.980;5.856;2023-06-19T02:28:46;4.35;;;3.95;;
67528;SDS011;54366;51.980;5.856;2023-06-19T02:31:18;3.58;;;3.28;;
67528;SDS011;54366;51.980;5.856;2023-06-19T02:33:51;3.10;;;2.90;;
67528;SDS011;54366;51.980;5.856;2023-06-19T02:36:18;3.63;;;3.33;;
67528;SDS011;54366;51.980;5.856;2023-06-19T02:38:51;3.67;;;3.38;;
67528;SDS011;54366;51.980;5.856;2023-06-19T02:41:24;3.60;;;3.30;;
67528;SDS011;54366;51.980;5.856;2023-06-19T02:43:57;4.32;;;3.90;;
67528;SDS011;54366;51.980;5.856;2023-06-19T02:46:30;3.75;;;3.45;;
67528;SDS011;54366;51.980;5.856;2023-06-19T02:48:57;3.78;;;3.47;;
67528;SDS011;54366;51.980;5.856;2023-06-19T02:51:29;4.05;;;3.50;;
67528;SDS011;54366;51.980;5.856;2023-06-19T02:54:03;4.28;;;3.88;;
67528;SDS011;54366;51.980;5.856;2023-06-19T02:56:32;3.85;;;3.55;;
67528;SDS011;54366;51.980;5.856;2023-06-19T02:59:04;3.92;;;3.53;;
67528;SDS011;54366;51.980;5.856;2023-06-19T03:01:31;3.95;;;3.63;;
67528;SDS011;54366;51.980;5.856;2023-06-19T03:04:03;3.80;;;3.50;;
67528;SDS011;54366;51.980;5.856;2023-06-19T03:06:30;3.38;;;3.17;;
67528;SDS011;54366;51.980;5.856;2023-06-19T03:09:05;4.07;;;3.55;;
67528;SDS011;54366;51.980;5.856;2023-06-19T03:11:44;2.83;;;2.50;;
67528;SDS011;54366;51.980;5.856;2023-06-19T03:14:18;2.97;;;2.67;;
67528;SDS011;54366;51.980;5.856;2023-06-19T03:16:51;2.15;;;2.05;;
67528;SDS011;54366;51.980;5.856;2023-06-19T03:19:18;2.20;;;2.05;;
67528;SDS011;54366;51.980;5.856;2023-06-19T03:21:50;2.17;;;2.08;;
67528;SDS011;54366;51.980;5.856;2023-06-19T03:24:23;1.95;;;1.75;;
67528;SDS011;54366;51.980;5.856;2023-06-19T03:27:11;1.70;;;1.60;;
67528;SDS011;54366;51.980;5.856;2023-06-19T03:29:43;1.60;;;1.50;;
67528;SDS011;54366;51.980;5.856;2023-06-19T03:32:13;2.20;;;2.00;;
67528;SDS011;54366;51.980;5.856;2023-06-19T03:34:47;2.20;;;2.00;;
67528;SDS011;54366;51.980;5.856;2023-06-19T03:37:14;1.80;;;1.70;;
67528;SDS011;54366;51.980;5.856;2023-06-19T03:39:48;1.80;;;1.70;;
67528;SDS011;54366;51.980;5.856;2023-06-19T03:42:14;2.50;;;1.65;;
67528;SDS011;54366;51.980;5.856;2023-06-19T03:44:48;1.95;;;1.63;;
67528;SDS011;54366;51.980;5.856;2023-06-19T03:47:14;1.77;;;1.67;;
67528;SDS011;54366;51.980;5.856;2023-06-19T03:49:48;1.70;;;1.60;;
67528;SDS011;54366;51.980;5.856;2023-06-19T03:52:15;1.95;;;1.80;;
67528;SDS011;54366;51.980;5.856;2023-06-19T03:57:15;2.17;;;1.35;;
67528;SDS011;54366;51.980;5.856;2023-06-19T03:59:47;1.70;;;1.60;;
67528;SDS011;54366;51.980;5.856;2023-06-19T04:02:28;2.22;;;1.85;;
67528;SDS011;54366;51.980;5.856;2023-06-19T04:05:08;1.63;;;1.52;;
67528;SDS011;54366;51.980;5.856;2023-06-19T04:07:34;1.73;;;1.30;;
67528;SDS011;54366;51.980;5.856;2023-06-19T04:10:09;2.30;;;2.10;;
67528;SDS011;54366;51.980;5.856;2023-06-19T04:12:43;2.05;;;1.92;;
67528;SDS011;54366;51.980;5.856;2023-06-19T04:15:17;2.03;;;1.92;;
67528;SDS011;54366;51.980;5.856;2023-06-19T04:17:50;2.38;;;2.17;;
67528;SDS011;54366;51.980;5.856;2023-06-19T04:20:23;2.25;;;1.98;;
67528;SDS011;54366;51.980;5.856;2023-06-19T04:22:56;2.17;;;2.03;;
67528;SDS011;54366;51.980;5.856;2023-06-19T04:25:29;2.50;;;2.30;;
67528;SDS011;54366;51.980;5.856;2023-06-19T04:27:56;2.38;;;2.17;;
67528;SDS011;54366;51.980;5.856;2023-06-19T04:30:29;1.77;;;1.67;;
67528;SDS011;54366;51.980;5.856;2023-06-19T04:33:02;1.80;;;1.70;;
67528;SDS011;54366;51.980;5.856;2023-06-19T04:38:11;2.28;;;2.10;;
67528;SDS011;54366;51.980;5.856;2023-06-19T04:40:46;2.55;;;2.10;;
67528;SDS011;54366;51.980;5.856;2023-06-19T04:43:19;2.42;;;2.22;;
67528;SDS011;54366;51.980;5.856;2023-06-19T04:45:52;1.85;;;1.75;;
67528;SDS011;54366;51.980;5.856;2023-06-19T04:48:19;1.90;;;1.80;;
67528;SDS011;54366;51.980;5.856;2023-06-19T04:50:52;1.98;;;1.88;;
67528;SDS011;54366;51.980;5.856;2023-06-19T04:53:24;2.53;;;1.92;;
67528;SDS011;54366;51.980;5.856;2023-06-19T04:55:57;2.70;;;2.50;;
67528;SDS011;54366;51.980;5.856;2023-06-19T04:58:30;2.78;;;2.38;;
67528;SDS011;54366;51.980;5.856;2023-06-19T05:01:03;2.20;;;2.00;;
67528;SDS011;54366;51.980;5.856;2023-06-19T05:03:44;3.05;;;2.75;;
67528;SDS011;54366;51.980;5.856;2023-06-19T05:06:22;2.17;;;1.98;;
67528;SDS011;54366;51.980;5.856;2023-06-19T05:08:55;3.28;;;2.80;;
67528;SDS011;54366;51.980;5.856;2023-06-19T05:11:22;2.88;;;2.63;;
67528;SDS011;54366;51.980;5.856;2023-06-19T05:13:55;3.20;;;2.88;;
67528;SDS011;54366;51.980;5.856;2023-06-19T05:16:21;2.00;;;1.90;;
67528;SDS011;54366;51.980;5.856;2023-06-19T05:18:54;2.72;;;2.53;;
67528;SDS011;54366;51.980;5.856;2023-06-19T05:21:27;2.20;;;2.10;;
67528;SDS011;54366;51.980;5.856;2023-06-19T05:24:00;2.25;;;2.10;;
67528;SDS011;54366;51.980;5.856;2023-06-19T05:26:33;3.40;;;3.10;;
67528;SDS011;54366;51.980;5.856;2023-06-19T05:29:00;3.40;;;3.10;;
67528;SDS011;54366;51.980;5.856;2023-06-19T05:31:32;2.80;;;2.60;;
67528;SDS011;54366;51.980;5.856;2023-06-19T05:33:59;2.78;;;2.47;;
67528;SDS011;54366;51.980;5.856;2023-06-19T05:36:31;3.50;;;3.20;;
67528;SDS011;54366;51.980;5.856;2023-06-19T05:39:04;3.15;;;2.90;;
67528;SDS011;54366;51.980;5.856;2023-06-19T05:41:31;2.78;;;2.40;;
67528;SDS011;54366;51.980;5.856;2023-06-19T05:44:03;2.30;;;2.10;;
67528;SDS011;54366;51.980;5.856;2023-06-19T05:46:36;2.60;;;2.40;;
67528;SDS011;54366;51.980;5.856;2023-06-19T05:49:09;2.75;;;2.50;;
67528;SDS011;54366;51.980;5.856;2023-06-19T05:51:42;2.50;;;2.30;;
67528;SDS011;54366;51.980;5.856;2023-06-19T05:54:09;2.97;;;2.75;;
67528;SDS011;54366;51.980;5.856;2023-06-19T05:56:41;4.13;;;3.17;;
67528;SDS011;54366;51.980;5.856;2023-06-19T05:59:14;3.50;;;3.20;;
67528;SDS011;54366;51.980;5.856;2023-06-19T06:01:41;4.03;;;3.20;;
67528;SDS011;54366;51.980;5.856;2023-06-19T06:04:13;2.83;;;2.63;;
67528;SDS011;54366;51.980;5.856;2023-06-19T06:06:53;3.45;;;2.92;;
67528;SDS011;54366;51.980;5.856;2023-06-19T06:09:26;4.15;;;3.70;;
67528;SDS011;54366;51.980;5.856;2023-06-19T06:11:53;3.70;;;3.40;;
67528;SDS011;54366;51.980;5.856;2023-06-19T06:14:26;3.88;;;3.50;;
67528;SDS011;54366;51.980;5.856;2023-06-19T06:19:26;3.90;;;3.58;;
67528;SDS011;54366;51.980;5.856;2023-06-19T06:21:58;6.70;;;4.60;;
67528;SDS011;54366;51.980;5.856;2023-06-19T06:24:31;4.68;;;4.28;;
67528;SDS011;54366;51.980;5.856;2023-06-19T06:27:05;4.20;;;3.78;;
67528;SDS011;54366;51.980;5.856;2023-06-19T06:29:32;6.30;;;5.70;;
67528;SDS011;54366;51.980;5.856;2023-06-19T06:32:05;5.97;;;5.45;;
67528;SDS011;54366;51.980;5.856;2023-06-19T06:34:39;5.03;;;4.53;;
67528;SDS011;54366;51.980;5.856;2023-06-19T06:37:12;5.80;;;5.30;;
67528;SDS011;54366;51.980;5.856;2023-06-19T06:39:39;4.07;;;3.78;;
67528;SDS011;54366;51.980;5.856;2023-06-19T06:42:12;5.00;;;4.60;;
67528;SDS011;54366;51.980;5.856;2023-06-19T06:44:39;5.00;;;4.60;;
67528;SDS011;54366;51.980;5.856;2023-06-19T06:47:11;4.57;;;4.22;;
67528;SDS011;54366;51.980;5.856;2023-06-19T06:49:44;3.75;;;3.40;;
67528;SDS011;54366;51.980;5.856;2023-06-19T06:52:17;4.50;;;4.10;;
67528;SDS011;54366;51.980;5.856;2023-06-19T06:54:51;3.83;;;3.53;;
67528;SDS011;54366;51.980;5.856;2023-06-19T06:57:17;4.45;;;4.05;;
67528;SDS011;54366;51.980;5.856;2023-06-19T06:59:49;3.13;;;2.92;;
67528;SDS011;54366;51.980;5.856;2023-06-19T07:02:29;3.30;;;2.55;;
67528;SDS011;54366;51.980;5.856;2023-06-19T07:05:09;3.75;;;3.45;;
67528;SDS011;54366;51.980;5.856;2023-06-19T07:07:36;3.58;;;3.28;;
67528;SDS011;54366;51.980;5.856;2023-06-19T07:10:09;3.70;;;3.20;;
67528;SDS011;54366;51.980;5.856;2023-06-19T07:12:46;2.67;;;2.47;;
67528;SDS011;54366;51.980;5.856;2023-06-19T07:15:19;3.92;;;3.60;;
67528;SDS011;54366;51.980;5.856;2023-06-19T07:17:52;4.88;;;3.83;;
67528;SDS011;54366;51.980;5.856;2023-06-19T07:20:19;4.57;;;4.18;;
67528;SDS011;54366;51.980;5.856;2023-06-19T07:22:52;4.30;;;3.90;;
67528;SDS011;54366;51.980;5.856;2023-06-19T07:25:19;3.15;;;2.85;;
67528;SDS011;54366;51.980;5.856;2023-06-19T07:27:51;3.20;;;2.90;;
67528;SDS011;54366;51.980;5.856;2023-06-19T07:30:18;4.55;;;3.83;;
67528;SDS011;54366;51.980;5.856;2023-06-19T07:32:50;4.45;;;4.05;;
67528;SDS011;54366;51.980;5.856;2023-06-19T07:35:23;6.13;;;4.10;;
67528;SDS011;54366;51.980;5.856;2023-06-19T07:37:50;5.45;;;4.28;;
67528;SDS011;54366;51.980;5.856;2023-06-19T07:40:22;5.30;;;4.90;;
67528;SDS011;54366;51.980;5.856;2023-06-19T07:42:49;6.05;;;4.93;;
67528;SDS011;54366;51.980;5.856;2023-06-19T07:45:21;6.53;;;5.93;;
67528;SDS011;54366;51.980;5.856;2023-06-19T07:50:29;5.35;;;4.95;;
67528;SDS011;54366;51.980;5.856;2023-06-19T07:53:01;7.28;;;6.68;;
67528;SDS011;54366;51.980;5.856;2023-06-19T07:55:34;7.85;;;7.15;;
67528;SDS011;54366;51.980;5.856;2023-06-19T07:58:01;7.80;;;7.10;;
67528;SDS011;54366;51.980;5.856;2023-06-19T08:00:34;7.18;;;6.45;;
67528;SDS011;54366;51.980;5.856;2023-06-19T08:03:01;7.70;;;7.00;;
67528;SDS011;54366;51.980;5.856;2023-06-19T08:05:33;7.85;;;7.00;;
67528;SDS011;54366;51.980;5.856;2023-06-19T08:08:07;8.38;;;7.50;;
67528;SDS011;54366;51.980;5.856;2023-06-19T08:10:40;8.57;;;7.87;;
67528;SDS011;54366;51.980;5.856;2023-06-19T08:13:06;9.18;;;8.27;;
67528;SDS011;54366;51.980;5.856;2023-06-19T08:15:40;6.93;;;6.32;;
67528;SDS011;54366;51.980;5.856;2023-06-19T08:18:13;7.30;;;6.53;;
67528;SDS011;54366;51.980;5.856;2023-06-19T08:20:46;6.97;;;6.38;;
67528;SDS011;54366;51.980;5.856;2023-06-19T08:23:19;9.20;;;8.30;;
67528;SDS011;54366;51.980;5.856;2023-06-19T08:25:45;8.30;;;7.57;;
67528;SDS011;54366;51.980;5.856;2023-06-19T08:28:18;7.20;;;6.60;;
67528;SDS011;54366;51.980;5.856;2023-06-19T08:30:51;7.95;;;7.10;;
67528;SDS011;54366;51.980;5.856;2023-06-19T08:33:24;10.38;;;9.38;;
67528;SDS011;54366;51.980;5.856;2023-06-19T08:35:50;7.50;;;6.80;;
67528;SDS011;54366;51.980;5.856;2023-06-19T08:38:23;7.40;;;6.70;;
67528;SDS011;54366;51.980;5.856;2023-06-19T08:40:49;6.50;;;5.90;;
67528;SDS011;54366;51.980;5.856;2023-06-19T08:43:22;9.02;;;8.13;;
67528;SDS011;54366;51.980;5.856;2023-06-19T08:45:56;7.68;;;7.07;;
67528;SDS011;54366;51.980;5.856;2023-06-19T08:48:44;8.10;;;7.40;;
67528;SDS011;54366;51.980;5.856;2023-06-19T08:51:17;7.63;;;6.93;;
67528;SDS011;54366;51.980;5.856;2023-06-19T08:53:53;8.07;;;7.43;;
67528;SDS011;54366;51.980;5.856;2023-06-19T08:56:27;9.90;;;8.90;;
67528;SDS011;54366;51.980;5.856;2023-06-19T08:58:53;8.40;;;7.60;;
67528;SDS011;54366;51.980;5.856;2023-06-19T09:01:26;8.55;;;7.75;;
67528;SDS011;54366;51.980;5.856;2023-06-19T09:04:09;7.60;;;6.90;;
67528;SDS011;54366;51.980;5.856;2023-06-19T09:06:56;9.65;;;8.85;;
67528;SDS011;54366;51.980;5.856;2023-06-19T09:09:51;10.30;;;9.32;;
67528;SDS011;54366;51.980;5.856;2023-06-19T09:12:25;8.45;;;7.50;;
67528;SDS011;54366;51.980;5.856;2023-06-19T09:15:01;7.05;;;6.47;;
67528;SDS011;54366;51.980;5.856;2023-06-19T09:17:43;8.75;;;7.93;;
67528;SDS011;54366;51.980;5.856;2023-06-19T09:20:25;8.50;;;7.70;;
67528;SDS011;54366;51.980;5.856;2023-06-19T09:23:00;7.75;;;7.05;;
67528;SDS011;54366;51.980;5.856;2023-06-19T09:25:26;7.75;;;7.00;;
67528;SDS011;54366;51.980;5.856;2023-06-19T09:27:59;7.57;;;6.88;;
67528;SDS011;54366;51.980;5.856;2023-06-19T09:30:32;7.73;;;7.03;;
67528;SDS011;54366;51.980;5.856;2023-06-19T09:33:07;7.77;;;7.17;;
67528;SDS011;54366;51.980;5.856;2023-06-19T09:35:34;7.03;;;6.43;;
67528;SDS011;54366;51.980;5.856;2023-06-19T09:38:07;7.03;;;6.43;;
67528;SDS011;54366;51.980;5.856;2023-06-19T09:40:40;7.10;;;6.50;;
67528;SDS011;54366;51.980;5.856;2023-06-19T09:43:06;9.65;;;8.75;;
67528;SDS011;54366;51.980;5.856;2023-06-19T09:45:40;7.35;;;6.70;;
67528;SDS011;54366;51.980;5.856;2023-06-19T09:48:13;8.57;;;7.73;;
67528;SDS011;54366;51.980;5.856;2023-06-19T09:50:52;10.27;;;9.43;;
67528;SDS011;54366;51.980;5.856;2023-06-19T09:53:30;8.75;;;7.95;;
67528;SDS011;54366;51.980;5.856;2023-06-19T09:55:57;7.70;;;7.10;;
67528;SDS011;54366;51.980;5.856;2023-06-19T09:58:30;8.20;;;7.47;;
67528;SDS011;54366;51.980;5.856;2023-06-19T10:01:04;8.60;;;7.80;;
67528;SDS011;54366;51.980;5.856;2023-06-19T10:04:00;9.77;;;8.88;;
67528;SDS011;54366;51.980;5.856;2023-06-19T10:06:43;9.07;;;8.27;;
67528;SDS011;54366;51.980;5.856;2023-06-19T10:09:11;8.93;;;8.13;;
67528;SDS011;54366;51.980;5.856;2023-06-19T10:11:46;8.75;;;7.85;;
67528;SDS011;54366;51.980;5.856;2023-06-19T10:14:23;7.68;;;7.07;;
67528;SDS011;54366;51.980;5.856;2023-06-19T10:16:50;9.45;;;8.55;;
67528;SDS011;54366;51.980;5.856;2023-06-19T10:19:23;9.43;;;8.63;;
67528;SDS011;54366;51.980;5.856;2023-06-19T10:21:57;8.30;;;7.55;;
67528;SDS011;54366;51.980;5.856;2023-06-19T10:24:30;9.68;;;8.77;;
67528;SDS011;54366;51.980;5.856;2023-06-19T10:26:57;8.55;;;7.85;;
67528;SDS011;54366;51.980;5.856;2023-06-19T10:29:38;10.40;;;9.60;;
67528;SDS011;54366;51.980;5.856;2023-06-19T10:32:12;10.43;;;9.52;;
67528;SDS011;54366;51.980;5.856;2023-06-19T10:34:45;10.25;;;9.45;;
67528;SDS011;54366;51.980;5.856;2023-06-19T10:37:32;9.98;;;9.07;;
67528;SDS011;54366;51.980;5.856;2023-06-19T10:40:05;8.75;;;8.00;;
67528;SDS011;54366;51.980;5.856;2023-06-19T10:42:45;8.68;;;7.97;;
67528;SDS011;54366;51.980;5.856;2023-06-19T10:45:18;11.60;;;10.63;;
67528;SDS011;54366;51.980;5.856;2023-06-19T10:47:51;10.07;;;9.18;;
67528;SDS011;54366;51.980;5.856;2023-06-19T10:50:17;10.23;;;9.32;;
67528;SDS011;54366;51.980;5.856;2023-06-19T10:55:20;7.97;;;7.38;;
67528;SDS011;54366;51.980;5.856;2023-06-19T11:00:31;11.45;;;10.35;;
67528;SDS011;54366;51.980;5.856;2023-06-19T11:03:06;11.15;;;10.05;;
67528;SDS011;54366;51.980;5.856;2023-06-19T11:05:46;8.00;;;7.30;;
67528;SDS011;54366;51.980;5.856;2023-06-19T11:08:23;9.43;;;8.40;;
67528;SDS011;54366;51.980;5.856;2023-06-19T11:10:50;8.55;;;7.88;;
67528;SDS011;54366;51.980;5.856;2023-06-19T11:13:23;9.13;;;8.35;;
67528;SDS011;54366;51.980;5.856;2023-06-19T11:15:52;9.85;;;9.05;;
67528;SDS011;54366;51.980;5.856;2023-06-19T11:18:25;12.38;;;11.38;;
67528;SDS011;54366;51.980;5.856;2023-06-19T11:20:58;9.32;;;8.52;;
67528;SDS011;54366;51.980;5.856;2023-06-19T11:23:26;11.60;;;10.52;;
67528;SDS011;54366;51.980;5.856;2023-06-19T11:26:05;9.60;;;8.70;;
67528;SDS011;54366;51.980;5.856;2023-06-19T11:28:39;11.63;;;10.60;;
67528;SDS011;54366;51.980;5.856;2023-06-19T11:31:13;8.30;;;7.60;;
67528;SDS011;54366;51.980;5.856;2023-06-19T11:33:55;10.45;;;9.55;;
67528;SDS011;54366;51.980;5.856;2023-06-19T11:36:29;8.32;;;7.53;;
67528;SDS011;54366;51.980;5.856;2023-06-19T11:39:02;10.38;;;9.40;;
67528;SDS011;54366;51.980;5.856;2023-06-19T11:41:45;9.75;;;8.85;;
67528;SDS011;54366;51.980;5.856;2023-06-19T11:44:18;7.90;;;7.13;;
67528;SDS011;54366;51.980;5.856;2023-06-19T11:46:44;8.73;;;8.02;;
67528;SDS011;54366;51.980;5.856;2023-06-19T11:49:19;8.38;;;7.68;;
67528;SDS011;54366;51.980;5.856;2023-06-19T11:51:52;11.38;;;10.27;;
67528;SDS011;54366;51.980;5.856;2023-06-19T11:54:25;14.15;;;12.85;;
67528;SDS011;54366;51.980;5.856;2023-06-19T11:56:58;8.75;;;7.88;;
67528;SDS011;54366;51.980;5.856;2023-06-19T11:59:31;9.20;;;8.40;;
67528;SDS011;54366;51.980;5.856;2023-06-19T12:02:04;8.32;;;7.65;;
67528;SDS011;54366;51.980;5.856;2023-06-19T12:04:37;7.47;;;6.88;;
67528;SDS011;54366;51.980;5.856;2023-06-19T12:07:03;8.13;;;7.35;;
67528;SDS011;54366;51.980;5.856;2023-06-19T12:09:37;6.43;;;5.82;;
67528;SDS011;54366;51.980;5.856;2023-06-19T12:12:05;7.50;;;6.75;;
67528;SDS011;54366;51.980;5.856;2023-06-19T12:14:39;7.80;;;7.10;;
67528;SDS011;54366;51.980;5.856;2023-06-19T12:17:05;9.35;;;8.48;;
67528;SDS011;54366;51.980;5.856;2023-06-19T12:19:38;6.80;;;6.30;;
67528;SDS011;54366;51.980;5.856;2023-06-19T12:22:04;6.22;;;5.72;;
67528;SDS011;54366;51.980;5.856;2023-06-19T12:24:37;9.10;;;8.30;;
67528;SDS011;54366;51.980;5.856;2023-06-19T12:27:03;5.70;;;5.25;;
67528;SDS011;54366;51.980;5.856;2023-06-19T12:29:36;8.60;;;7.80;;
67528;SDS011;54366;51.980;5.856;2023-06-19T12:32:02;6.80;;;6.20;;
67528;SDS011;54366;51.980;5.856;2023-06-19T12:34:36;6.50;;;5.90;;
67528;SDS011;54366;51.980;5.856;2023-06-19T12:37:02;6.70;;;6.10;;
67528;SDS011;54366;51.980;5.856;2023-06-19T12:39:35;8.00;;;7.40;;
67528;SDS011;54366;51.980;5.856;2023-06-19T12:42:01;7.93;;;7.18;;
67528;SDS011;54366;51.980;5.856;2023-06-19T12:44:34;5.77;;;5.33;;
67528;SDS011;54366;51.980;5.856;2023-06-19T12:47:07;7.18;;;6.53;;
67528;SDS011;54366;51.980;5.856;2023-06-19T12:49:33;5.90;;;5.40;;
67528;SDS011;54366;51.980;5.856;2023-06-19T12:52:07;6.38;;;4.90;;
67528;SDS011;54366;51.980;5.856;2023-06-19T12:54:33;6.63;;;6.03;;
67528;SDS011;54366;51.980;5.856;2023-06-19T12:57:07;7.45;;;6.60;;
67528;SDS011;54366;51.980;5.856;2023-06-19T12:59:40;6.68;;;6.07;;
67528;SDS011;54366;51.980;5.856;2023-06-19T13:02:20;7.47;;;6.88;;
67528;SDS011;54366;51.980;5.856;2023-06-19T13:05:00;7.05;;;6.15;;
67528;SDS011;54366;51.980;5.856;2023-06-19T13:07:33;5.65;;;5.15;;
67528;SDS011;54366;51.980;5.856;2023-06-19T13:09:59;5.80;;;5.30;;
67528;SDS011;54366;51.980;5.856;2023-06-19T13:12:32;7.33;;;6.63;;
67528;SDS011;54366;51.980;5.856;2023-06-19T13:15:05;6.70;;;6.10;;
67528;SDS011;54366;51.980;5.856;2023-06-19T13:17:39;5.63;;;5.22;;
67528;SDS011;54366;51.980;5.856;2023-06-19T13:20:05;5.60;;;5.10;;
67528;SDS011;54366;51.980;5.856;2023-06-19T13:22:39;5.57;;;5.05;;
67528;SDS011;54366;51.980;5.856;2023-06-19T13:25:12;6.75;;;5.70;;
67528;SDS011;54366;51.980;5.856;2023-06-19T13:27:45;6.38;;;5.78;;
67528;SDS011;54366;51.980;5.856;2023-06-19T13:30:18;6.68;;;6.07;;
67528;SDS011;54366;51.980;5.856;2023-06-19T13:32:51;4.93;;;4.53;;
67528;SDS011;54366;51.980;5.856;2023-06-19T13:35:17;5.13;;;4.63;;
67528;SDS011;54366;51.980;5.856;2023-06-19T13:37:50;6.85;;;6.25;;
67528;SDS011;54366;51.980;5.856;2023-06-19T13:43:03;7.22;;;6.68;;
67528;SDS011;54366;51.980;5.856;2023-06-19T13:45:43;6.30;;;5.80;;
67528;SDS011;54366;51.980;5.856;2023-06-19T13:48:16;5.53;;;5.13;;
67528;SDS011;54366;51.980;5.856;2023-06-19T13:50:49;5.57;;;5.07;;
67528;SDS011;54366;51.980;5.856;2023-06-19T13:53:22;4.75;;;4.35;;
67528;SDS011;54366;51.980;5.856;2023-06-19T13:55:56;5.32;;;4.85;;
67528;SDS011;54366;51.980;5.856;2023-06-19T13:58:22;5.60;;;5.10;;
67528;SDS011;54366;51.980;5.856;2023-06-19T14:00:56;4.30;;;4.00;;
67528;SDS011;54366;51.980;5.856;2023-06-19T14:03:36;5.38;;;4.97;;
67528;SDS011;54366;51.980;5.856;2023-06-19T14:06:10;6.15;;;5.63;;
67528;SDS011;54366;51.980;5.856;2023-06-19T14:08:44;6.85;;;6.25;;
67528;SDS011;54366;51.980;5.856;2023-06-19T14:11:17;6.38;;;5.78;;
67528;SDS011;54366;51.980;5.856;2023-06-19T14:13:51;6.22;;;5.68;;
67528;SDS011;54366;51.980;5.856;2023-06-19T14:16:17;5.97;;;5.55;;
67528;SDS011;54366;51.980;5.856;2023-06-19T14:18:50;5.67;;;5.23;;
67528;SDS011;54366;51.980;5.856;2023-06-19T14:21:23;6.05;;;5.55;;
67528;SDS011;54366;51.980;5.856;2023-06-19T14:23:49;5.25;;;4.85;;
67528;SDS011;54366;51.980;5.856;2023-06-19T14:26:22;6.30;;;5.73;;
67528;SDS011;54366;51.980;5.856;2023-06-19T14:28:55;5.97;;;5.47;;
67528;SDS011;54366;51.980;5.856;2023-06-19T14:31:23;7.85;;;7.15;;
67528;SDS011;54366;51.980;5.856;2023-06-19T14:33:56;6.43;;;5.90;;
67528;SDS011;54366;51.980;5.856;2023-06-19T14:36:29;7.50;;;6.07;;
67528;SDS011;54366;51.980;5.856;2023-06-19T14:39:02;6.18;;;5.57;;
67528;SDS011;54366;51.980;5.856;2023-06-19T14:41:28;5.20;;;4.80;;
67528;SDS011;54366;51.980;5.856;2023-06-19T14:44:01;5.97;;;5.47;;
67528;SDS011;54366;51.980;5.856;2023-06-19T14:46:27;7.57;;;6.88;;
67528;SDS011;54366;51.980;5.856;2023-06-19T14:49:00;5.50;;;5.10;;
67528;SDS011;54366;51.980;5.856;2023-06-19T14:51:33;6.30;;;5.80;;
67528;SDS011;54366;51.980;5.856;2023-06-19T14:54:06;6.22;;;5.60;;
67528;SDS011;54366;51.980;5.856;2023-06-19T14:56:39;6.75;;;6.15;;
67528;SDS011;54366;51.980;5.856;2023-06-19T14:59:12;4.72;;;4.32;;
67528;SDS011;54366;51.980;5.856;2023-06-19T15:01:38;5.00;;;4.55;;
67528;SDS011;54366;51.980;5.856;2023-06-19T15:04:11;6.75;;;6.15;;
67528;SDS011;54366;51.980;5.856;2023-06-19T15:06:51;5.15;;;4.70;;
67528;SDS011;54366;51.980;5.856;2023-06-19T15:09:17;5.80;;;5.30;;
67528;SDS011;54366;51.980;5.856;2023-06-19T15:11:50;5.33;;;4.83;;
67528;SDS011;54366;51.980;5.856;2023-06-19T15:14:16;5.30;;;4.90;;
67528;SDS011;54366;51.980;5.856;2023-06-19T15:16:50;7.72;;;6.65;;
67528;SDS011;54366;51.980;5.856;2023-06-19T15:19:16;8.25;;;7.13;;
67528;SDS011;54366;51.980;5.856;2023-06-19T15:21:49;6.53;;;5.93;;
67528;SDS011;54366;51.980;5.856;2023-06-19T15:24:22;5.47;;;5.07;;
67528;SDS011;54366;51.980;5.856;2023-06-19T15:26:55;5.60;;;5.20;;
67528;SDS011;54366;51.980;5.856;2023-06-19T15:29:30;6.18;;;5.60;;
67528;SDS011;54366;51.980;5.856;2023-06-19T15:32:03;5.57;;;5.18;;
67528;SDS011;54366;51.980;5.856;2023-06-19T15:34:36;4.95;;;4.55;;
67528;SDS011;54366;51.980;5.856;2023-06-19T15:37:03;6.05;;;5.55;;